sensor_id;sensor_type;location;lat;lon;timestamp;temperature;humidity
19878;DHT22;10101;52.204;9.910;2024-02-21T00:00:19;8.20;99.90
19878;DHT22;10101;52.204;9.910;2024-02-21T00:02:46;8.20;99.90
19878;DHT22;10101;52.204;9.910;2024-02-21T00:05:12;8.20;99.90
19878;DHT22;10101;52.204;9.910;2024-02-21T00:07:39;8.30;99.90
19878;DHT22;10101;52.204;9.910;2024-02-21T00:10:07;8.30;99.90
19878;DHT22;10101;52.204;9.910;2024-02-21T00:12:34;8.30;99.90
19878;DHT22;10101;52.204;9.910;2024-02-21T00:15:01;8.30;98.10
19878;DHT22;10101;52.204;9.910;2024-02-21T00:17:29;8.30;15.40
19878;DHT22;10101;52.204;9.910;2024-02-21T00:19:56;8.30;91.10
19878;DHT22;10101;52.204;9.910;2024-02-21T00:22:23;8.30;39.90
19878;DHT22;10101;52.204;9.910;2024-02-21T00:24:50;8.30;39.40
19878;DHT22;10101;52.204;9.910;2024-02-21T00:27:17;8.30;98.00
19878;DHT22;10101;52.204;9.910;2024-02-21T00:29:43;8.30;99.90
19878;DHT22;10101;52.204;9.910;2024-02-21T00:32:10;8.20;99.90
19878;DHT22;10101;52.204;9.910;2024-02-21T00:34:38;8.20;99.90
19878;DHT22;10101;52.204;9.910;2024-02-21T00:37:05;8.30;99.90
19878;DHT22;10101;52.204;9.910;2024-02-21T00:39:32;8.30;99.90
19878;DHT22;10101;52.204;9.910;2024-02-21T00:41:58;8.30;1.00
19878;DHT22;10101;52.204;9.910;2024-02-21T00:44:25;8.20;1.00
19878;DHT22;10101;52.204;9.910;2024-02-21T00:46:52;8.20;1.00
19878;DHT22;10101;52.204;9.910;2024-02-21T00:49:19;8.30;1.00
19878;DHT22;10101;52.204;9.910;2024-02-21T00:51:47;8.30;1.00
19878;DHT22;10101;52.204;9.910;2024-02-21T00:54:14;8.30;1.00
19878;DHT22;10101;52.204;9.910;2024-02-21T00:56:41;8.30;1.00
19878;DHT22;10101;52.204;9.910;2024-02-21T00:59:08;8.20;1.00
19878;DHT22;10101;52.204;9.910;2024-02-21T01:01:35;8.20;1.00
19878;DHT22;10101;52.204;9.910;2024-02-21T01:04:01;8.30;1.00
19878;DHT22;10101;52.204;9.910;2024-02-21T01:06:28;8.30;1.00
19878;DHT22;10101;52.204;9.910;2024-02-21T01:08:56;8.30;1.00
19878;DHT22;10101;52.204;9.910;2024-02-21T01:11:23;8.40;1.00
19878;DHT22;10101;52.204;9.910;2024-02-21T01:13:50;8.30;1.00
19878;DHT22;10101;52.204;9.910;2024-02-21T01:16:16;8.30;1.00
19878;DHT22;10101;52.204;9.910;2024-02-21T01:18:43;8.30;1.00
19878;DHT22;10101;52.204;9.910;2024-02-21T01:21:10;8.30;99.90
19878;DHT22;10101;52.204;9.910;2024-02-21T01:23:37;8.30;1.00
19878;DHT22;10101;52.204;9.910;2024-02-21T01:26:05;8.40;99.90
19878;DHT22;10101;52.204;9.910;2024-02-21T01:28:33;8.30;99.90
19878;DHT22;10101;52.204;9.910;2024-02-21T01:31:00;8.40;99.90
19878;DHT22;10101;52.204;9.910;2024-02-21T01:33:27;8.30;99.90
19878;DHT22;10101;52.204;9.910;2024-02-21T01:35:55;8.40;99.90
19878;DHT22;10101;52.204;9.910;2024-02-21T01:38:22;8.30;99.90
19878;DHT22;10101;52.204;9.910;2024-02-21T01:40:49;8.40;99.90
19878;DHT22;10101;52.204;9.910;2024-02-21T01:43:19;8.30;99.90
19878;DHT22;10101;52.204;9.910;2024-02-21T01:45:48;8.30;99.90
19878;DHT22;10101;52.204;9.910;2024-02-21T01:48:16;8.30;99.90
19878;DHT22;10101;52.204;9.910;2024-02-21T01:50:44;8.30;99.90
19878;DHT22;10101;52.204;9.910;2024-02-21T01:53:11;8.30;99.90
19878;DHT22;10101;52.204;9.910;2024-02-21T01:55:43;8.30;99.90
19878;DHT22;10101;52.204;9.910;2024-02-21T01:58:11;8.20;99.90
19878;DHT22;10101;52.204;9.910;2024-02-21T02:00:41;8.30;99.90
19878;DHT22;10101;52.204;9.910;2024-02-21T02:03:09;8.30;99.90
19878;DHT22;10101;52.204;9.910;2024-02-21T02:05:43;8.50;99.90
19878;DHT22;10101;52.204;9.910;2024-02-21T02:08:10;8.30;44.70
19878;DHT22;10101;52.204;9.910;2024-02-21T02:10:37;8.30;1.00
19878;DHT22;10101;52.204;9.910;2024-02-21T02:13:03;8.30;1.00
19878;DHT22;10101;52.204;9.910;2024-02-21T02:15:39;8.40;1.00
19878;DHT22;10101;52.204;9.910;2024-02-21T02:18:06;8.30;1.00
19878;DHT22;10101;52.204;9.910;2024-02-21T02:20:33;8.30;1.00
19878;DHT22;10101;52.204;9.910;2024-02-21T02:22:59;8.30;1.00
19878;DHT22;10101;52.204;9.910;2024-02-21T02:25:29;8.30;1.00
19878;DHT22;10101;52.204;9.910;2024-02-21T02:27:56;8.30;1.00
19878;DHT22;10101;52.204;9.910;2024-02-21T02:30:22;8.30;1.00
19878;DHT22;10101;52.204;9.910;2024-02-21T02:32:49;8.40;1.00
19878;DHT22;10101;52.204;9.910;2024-02-21T02:35:16;8.40;1.00
19878;DHT22;10101;52.204;9.910;2024-02-21T02:37:48;8.40;1.00
19878;DHT22;10101;52.204;9.910;2024-02-21T02:40:15;8.40;1.00
19878;DHT22;10101;52.204;9.910;2024-02-21T02:42:43;8.40;1.00
19878;DHT22;10101;52.204;9.910;2024-02-21T02:45:10;8.30;1.00
19878;DHT22;10101;52.204;9.910;2024-02-21T02:47:37;8.30;1.00
19878;DHT22;10101;52.204;9.910;2024-02-21T02:50:07;8.40;1.00
19878;DHT22;10101;52.204;9.910;2024-02-21T02:52:34;8.30;1.00
19878;DHT22;10101;52.204;9.910;2024-02-21T02:55:00;8.30;1.00
19878;DHT22;10101;52.204;9.910;2024-02-21T02:57:27;8.40;1.00
19878;DHT22;10101;52.204;9.910;2024-02-21T02:59:55;8.30;1.00
19878;DHT22;10101;52.204;9.910;2024-02-21T03:02:22;8.40;1.00
19878;DHT22;10101;52.204;9.910;2024-02-21T03:04:49;8.40;1.00
19878;DHT22;10101;52.204;9.910;2024-02-21T03:07:16;8.40;1.00
19878;DHT22;10101;52.204;9.910;2024-02-21T03:09:43;8.40;1.00
19878;DHT22;10101;52.204;9.910;2024-02-21T03:12:10;8.40;99.90
19878;DHT22;10101;52.204;9.910;2024-02-21T03:14:37;8.40;99.90
19878;DHT22;10101;52.204;9.910;2024-02-21T03:17:05;8.40;99.90
19878;DHT22;10101;52.204;9.910;2024-02-21T03:19:31;8.40;99.90
19878;DHT22;10101;52.204;9.910;2024-02-21T03:21:58;8.40;99.90
19878;DHT22;10101;52.204;9.910;2024-02-21T03:24:25;8.40;99.90
19878;DHT22;10101;52.204;9.910;2024-02-21T03:26:51;8.40;99.90
19878;DHT22;10101;52.204;9.910;2024-02-21T03:29:18;8.40;99.90
19878;DHT22;10101;52.204;9.910;2024-02-21T03:31:45;8.40;99.90
19878;DHT22;10101;52.204;9.910;2024-02-21T03:34:13;8.40;99.90
19878;DHT22;10101;52.204;9.910;2024-02-21T03:36:40;8.40;99.90
19878;DHT22;10101;52.204;9.910;2024-02-21T03:39:06;8.50;99.90
19878;DHT22;10101;52.204;9.910;2024-02-21T03:41:34;8.50;99.90
19878;DHT22;10101;52.204;9.910;2024-02-21T03:44:01;8.50;10.50
19878;DHT22;10101;52.204;9.910;2024-02-21T03:46:28;8.40;1.00
19878;DHT22;10101;52.204;9.910;2024-02-21T03:48:54;8.50;1.00
19878;DHT22;10101;52.204;9.910;2024-02-21T03:51:23;8.40;1.00
19878;DHT22;10101;52.204;9.910;2024-02-21T03:53:49;8.40;1.00
19878;DHT22;10101;52.204;9.910;2024-02-21T03:56:16;8.40;1.00
19878;DHT22;10101;52.204;9.910;2024-02-21T03:58:43;8.40;1.00
19878;DHT22;10101;52.204;9.910;2024-02-21T04:01:09;8.50;1.00
19878;DHT22;10101;52.204;9.910;2024-02-21T04:03:36;8.50;1.00
19878;DHT22;10101;52.204;9.910;2024-02-21T04:06:03;8.50;1.00
19878;DHT22;10101;52.204;9.910;2024-02-21T04:08:32;8.50;1.00
19878;DHT22;10101;52.204;9.910;2024-02-21T04:10:58;8.40;99.90
19878;DHT22;10101;52.204;9.910;2024-02-21T04:13:25;8.50;1.00
19878;DHT22;10101;52.204;9.910;2024-02-21T04:15:52;8.50;99.90
19878;DHT22;10101;52.204;9.910;2024-02-21T04:18:19;8.50;99.90
19878;DHT22;10101;52.204;9.910;2024-02-21T04:20:45;8.50;99.90
19878;DHT22;10101;52.204;9.910;2024-02-21T04:23:13;8.50;99.90
19878;DHT22;10101;52.204;9.910;2024-02-21T04:25:41;8.50;99.90
19878;DHT22;10101;52.204;9.910;2024-02-21T04:28:07;8.50;99.90
19878;DHT22;10101;52.204;9.910;2024-02-21T04:30:34;8.50;99.90
19878;DHT22;10101;52.204;9.910;2024-02-21T04:33:01;8.50;1.00
19878;DHT22;10101;52.204;9.910;2024-02-21T04:35:28;8.60;99.90
19878;DHT22;10101;52.204;9.910;2024-02-21T04:37:55;8.50;98.80
19878;DHT22;10101;52.204;9.910;2024-02-21T04:40:21;8.50;91.00
19878;DHT22;10101;52.204;9.910;2024-02-21T04:42:49;8.60;90.50
19878;DHT22;10101;52.204;9.910;2024-02-21T04:45:16;8.60;52.90
19878;DHT22;10101;52.204;9.910;2024-02-21T04:47:43;8.50;1.00
19878;DHT22;10101;52.204;9.910;2024-02-21T04:50:10;8.50;1.00
19878;DHT22;10101;52.204;9.910;2024-02-21T04:52:36;8.50;3.00
19878;DHT22;10101;52.204;9.910;2024-02-21T04:55:04;8.60;48.20
19878;DHT22;10101;52.204;9.910;2024-02-21T04:57:31;8.60;57.20
19878;DHT22;10101;52.204;9.910;2024-02-21T04:59:59;8.60;1.00
19878;DHT22;10101;52.204;9.910;2024-02-21T05:02:26;8.60;1.00
19878;DHT22;10101;52.204;9.910;2024-02-21T05:04:53;8.60;1.00
19878;DHT22;10101;52.204;9.910;2024-02-21T05:07:19;8.60;1.00
19878;DHT22;10101;52.204;9.910;2024-02-21T05:09:46;8.60;1.00
19878;DHT22;10101;52.204;9.910;2024-02-21T05:12:13;8.60;1.00
19878;DHT22;10101;52.204;9.910;2024-02-21T05:14:40;8.50;1.00
19878;DHT22;10101;52.204;9.910;2024-02-21T05:17:08;8.60;1.00
19878;DHT22;10101;52.204;9.910;2024-02-21T05:19:34;8.60;1.00
19878;DHT22;10101;52.204;9.910;2024-02-21T05:22:01;8.50;1.00
19878;DHT22;10101;52.204;9.910;2024-02-21T05:24:28;8.60;1.00
19878;DHT22;10101;52.204;9.910;2024-02-21T05:26:55;8.70;1.00
19878;DHT22;10101;52.204;9.910;2024-02-21T05:29:22;8.60;1.00
19878;DHT22;10101;52.204;9.910;2024-02-21T05:31:55;8.60;1.00
19878;DHT22;10101;52.204;9.910;2024-02-21T05:34:24;8.60;1.00
19878;DHT22;10101;52.204;9.910;2024-02-21T05:36:52;8.60;1.00
19878;DHT22;10101;52.204;9.910;2024-02-21T05:39:18;8.60;1.00
19878;DHT22;10101;52.204;9.910;2024-02-21T05:41:48;8.60;1.00
19878;DHT22;10101;52.204;9.910;2024-02-21T05:44:15;8.60;1.00
19878;DHT22;10101;52.204;9.910;2024-02-21T05:46:42;8.60;1.00
19878;DHT22;10101;52.204;9.910;2024-02-21T05:49:08;8.60;1.00
19878;DHT22;10101;52.204;9.910;2024-02-21T05:51:36;8.60;1.00
19878;DHT22;10101;52.204;9.910;2024-02-21T05:54:03;8.60;1.00
19878;DHT22;10101;52.204;9.910;2024-02-21T05:56:30;8.60;1.00
19878;DHT22;10101;52.204;9.910;2024-02-21T05:58:57;8.60;1.00
19878;DHT22;10101;52.204;9.910;2024-02-21T06:01:23;8.50;1.00
19878;DHT22;10101;52.204;9.910;2024-02-21T06:03:50;8.60;1.00
19878;DHT22;10101;52.204;9.910;2024-02-21T06:06:17;8.60;1.00
19878;DHT22;10101;52.204;9.910;2024-02-21T06:08:45;8.50;1.00
19878;DHT22;10101;52.204;9.910;2024-02-21T06:11:12;8.50;1.00
19878;DHT22;10101;52.204;9.910;2024-02-21T06:13:40;8.50;1.00
19878;DHT22;10101;52.204;9.910;2024-02-21T06:16:07;8.60;1.00
19878;DHT22;10101;52.204;9.910;2024-02-21T06:18:35;8.50;1.00
19878;DHT22;10101;52.204;9.910;2024-02-21T06:21:05;8.40;1.00
19878;DHT22;10101;52.204;9.910;2024-02-21T06:23:32;8.40;1.00
19878;DHT22;10101;52.204;9.910;2024-02-21T06:26:00;8.40;1.00
19878;DHT22;10101;52.204;9.910;2024-02-21T06:28:27;8.40;1.00
19878;DHT22;10101;52.204;9.910;2024-02-21T06:30:54;8.40;1.00
19878;DHT22;10101;52.204;9.910;2024-02-21T06:33:20;8.40;1.00
19878;DHT22;10101;52.204;9.910;2024-02-21T06:35:50;8.40;1.00
19878;DHT22;10101;52.204;9.910;2024-02-21T06:38:18;8.30;1.00
19878;DHT22;10101;52.204;9.910;2024-02-21T06:40:45;8.30;1.00
19878;DHT22;10101;52.204;9.910;2024-02-21T06:43:17;8.30;1.00
19878;DHT22;10101;52.204;9.910;2024-02-21T06:45:44;8.30;1.00
19878;DHT22;10101;52.204;9.910;2024-02-21T06:48:13;8.30;1.00
19878;DHT22;10101;52.204;9.910;2024-02-21T06:50:40;8.20;1.00
19878;DHT22;10101;52.204;9.910;2024-02-21T06:53:07;8.20;1.00
19878;DHT22;10101;52.204;9.910;2024-02-21T06:55:33;8.20;1.00
19878;DHT22;10101;52.204;9.910;2024-02-21T06:58:00;8.30;1.00
19878;DHT22;10101;52.204;9.910;2024-02-21T07:00:29;8.20;1.00
19878;DHT22;10101;52.204;9.910;2024-02-21T07:02:56;8.20;1.00
19878;DHT22;10101;52.204;9.910;2024-02-21T07:05:23;8.20;1.00
19878;DHT22;10101;52.204;9.910;2024-02-21T07:07:50;8.30;1.00
19878;DHT22;10101;52.204;9.910;2024-02-21T07:10:17;8.20;1.00
19878;DHT22;10101;52.204;9.910;2024-02-21T07:12:43;8.30;28.30
19878;DHT22;10101;52.204;9.910;2024-02-21T07:15:10;8.40;31.20
19878;DHT22;10101;52.204;9.910;2024-02-21T07:17:38;8.40;1.00
19878;DHT22;10101;52.204;9.910;2024-02-21T07:20:06;8.40;5.80
19878;DHT22;10101;52.204;9.910;2024-02-21T07:22:33;8.40;1.00
19878;DHT22;10101;52.204;9.910;2024-02-21T07:25:00;8.40;1.00
19878;DHT22;10101;52.204;9.910;2024-02-21T07:27:26;8.40;1.00
19878;DHT22;10101;52.204;9.910;2024-02-21T07:29:56;8.40;43.20
19878;DHT22;10101;52.204;9.910;2024-02-21T07:32:23;8.40;1.00
19878;DHT22;10101;52.204;9.910;2024-02-21T07:34:51;8.40;2.30
19878;DHT22;10101;52.204;9.910;2024-02-21T07:37:18;8.50;99.90
19878;DHT22;10101;52.204;9.910;2024-02-21T07:39:44;8.50;99.90
19878;DHT22;10101;52.204;9.910;2024-02-21T07:42:11;8.50;99.90
19878;DHT22;10101;52.204;9.910;2024-02-21T07:44:38;8.50;97.70
19878;DHT22;10101;52.204;9.910;2024-02-21T07:47:05;8.50;99.90
19878;DHT22;10101;52.204;9.910;2024-02-21T07:49:32;8.50;99.90
19878;DHT22;10101;52.204;9.910;2024-02-21T07:52:01;8.50;99.90
19878;DHT22;10101;52.204;9.910;2024-02-21T07:54:28;8.50;23.70
19878;DHT22;10101;52.204;9.910;2024-02-21T07:56:55;8.60;99.90
19878;DHT22;10101;52.204;9.910;2024-02-21T07:59:22;8.50;83.80
19878;DHT22;10101;52.204;9.910;2024-02-21T08:01:48;8.50;1.00
19878;DHT22;10101;52.204;9.910;2024-02-21T08:04:15;8.50;13.70
19878;DHT22;10101;52.204;9.910;2024-02-21T08:06:42;8.60;48.20
19878;DHT22;10101;52.204;9.910;2024-02-21T08:09:11;8.60;1.00
19878;DHT22;10101;52.204;9.910;2024-02-21T08:11:38;8.60;13.00
19878;DHT22;10101;52.204;9.910;2024-02-21T08:14:05;8.60;1.00
19878;DHT22;10101;52.204;9.910;2024-02-21T08:16:32;8.60;78.10
19878;DHT22;10101;52.204;9.910;2024-02-21T08:18:59;8.60;99.90
19878;DHT22;10101;52.204;9.910;2024-02-21T08:21:28;8.60;99.90
19878;DHT22;10101;52.204;9.910;2024-02-21T08:23:55;8.70;52.10
19878;DHT22;10101;52.204;9.910;2024-02-21T08:26:23;8.70;99.90
19878;DHT22;10101;52.204;9.910;2024-02-21T08:28:53;8.70;99.90
19878;DHT22;10101;52.204;9.910;2024-02-21T08:31:19;8.70;99.90
19878;DHT22;10101;52.204;9.910;2024-02-21T08:33:46;8.80;99.90
19878;DHT22;10101;52.204;9.910;2024-02-21T08:36:17;8.80;99.90
19878;DHT22;10101;52.204;9.910;2024-02-21T08:38:44;8.80;99.90
19878;DHT22;10101;52.204;9.910;2024-02-21T08:41:11;8.90;99.90
19878;DHT22;10101;52.204;9.910;2024-02-21T08:43:40;8.90;99.90
19878;DHT22;10101;52.204;9.910;2024-02-21T08:46:06;9.00;99.90
19878;DHT22;10101;52.204;9.910;2024-02-21T08:48:33;9.00;99.90
19878;DHT22;10101;52.204;9.910;2024-02-21T08:51:00;9.00;99.90
19878;DHT22;10101;52.204;9.910;2024-02-21T08:53:26;9.10;99.90
19878;DHT22;10101;52.204;9.910;2024-02-21T08:55:54;9.20;99.90
19878;DHT22;10101;52.204;9.910;2024-02-21T08:58:20;9.20;99.90
19878;DHT22;10101;52.204;9.910;2024-02-21T09:00:50;9.30;99.90
19878;DHT22;10101;52.204;9.910;2024-02-21T09:03:17;9.30;99.90
19878;DHT22;10101;52.204;9.910;2024-02-21T09:05:45;9.30;99.90
19878;DHT22;10101;52.204;9.910;2024-02-21T09:08:12;9.40;99.90
19878;DHT22;10101;52.204;9.910;2024-02-21T09:10:39;9.30;99.90
19878;DHT22;10101;52.204;9.910;2024-02-21T09:13:06;9.30;99.90
19878;DHT22;10101;52.204;9.910;2024-02-21T09:15:34;9.30;99.90
19878;DHT22;10101;52.204;9.910;2024-02-21T09:18:02;9.30;1.00
19878;DHT22;10101;52.204;9.910;2024-02-21T09:20:29;9.30;19.30
19878;DHT22;10101;52.204;9.910;2024-02-21T09:22:56;9.30;1.00
19878;DHT22;10101;52.204;9.910;2024-02-21T09:25:23;9.30;1.00
19878;DHT22;10101;52.204;9.910;2024-02-21T09:27:50;9.30;1.00
19878;DHT22;10101;52.204;9.910;2024-02-21T09:30:17;9.30;1.00
19878;DHT22;10101;52.204;9.910;2024-02-21T09:32:44;9.30;1.00
19878;DHT22;10101;52.204;9.910;2024-02-21T09:35:12;9.40;1.00
19878;DHT22;10101;52.204;9.910;2024-02-21T09:37:39;9.40;1.00
19878;DHT22;10101;52.204;9.910;2024-02-21T09:40:07;9.40;1.00
19878;DHT22;10101;52.204;9.910;2024-02-21T09:42:37;9.40;1.00
19878;DHT22;10101;52.204;9.910;2024-02-21T09:45:08;9.50;1.00
19878;DHT22;10101;52.204;9.910;2024-02-21T09:47:42;9.60;1.00
19878;DHT22;10101;52.204;9.910;2024-02-21T09:50:12;9.60;1.00
19878;DHT22;10101;52.204;9.910;2024-02-21T09:52:40;9.60;1.00
19878;DHT22;10101;52.204;9.910;2024-02-21T09:55:09;9.70;1.00
19878;DHT22;10101;52.204;9.910;2024-02-21T09:57:39;9.70;1.00
19878;DHT22;10101;52.204;9.910;2024-02-21T10:00:07;9.80;1.00
19878;DHT22;10101;52.204;9.910;2024-02-21T10:02:34;9.80;1.00
19878;DHT22;10101;52.204;9.910;2024-02-21T10:05:01;9.90;1.00
19878;DHT22;10101;52.204;9.910;2024-02-21T10:07:30;9.90;1.00
19878;DHT22;10101;52.204;9.910;2024-02-21T10:10:01;10.00;1.00
19878;DHT22;10101;52.204;9.910;2024-02-21T10:12:28;10.00;1.00
19878;DHT22;10101;52.204;9.910;2024-02-21T10:15:00;10.00;1.00
19878;DHT22;10101;52.204;9.910;2024-02-21T10:17:27;10.10;1.00
19878;DHT22;10101;52.204;9.910;2024-02-21T10:19:54;10.20;1.00
19878;DHT22;10101;52.204;9.910;2024-02-21T10:22:20;10.10;1.00
19878;DHT22;10101;52.204;9.910;2024-02-21T10:24:50;10.10;1.00
19878;DHT22;10101;52.204;9.910;2024-02-21T10:27:23;10.20;1.00
19878;DHT22;10101;52.204;9.910;2024-02-21T10:29:50;10.30;1.00
19878;DHT22;10101;52.204;9.910;2024-02-21T10:32:17;10.20;1.00
19878;DHT22;10101;52.204;9.910;2024-02-21T10:34:44;10.40;1.00
19878;DHT22;10101;52.204;9.910;2024-02-21T10:37:11;10.30;1.00
19878;DHT22;10101;52.204;9.910;2024-02-21T10:39:39;10.30;1.00
19878;DHT22;10101;52.204;9.910;2024-02-21T10:42:10;10.40;1.00
19878;DHT22;10101;52.204;9.910;2024-02-21T10:44:39;10.60;1.00
19878;DHT22;10101;52.204;9.910;2024-02-21T10:47:08;10.50;1.00
19878;DHT22;10101;52.204;9.910;2024-02-21T10:49:38;10.50;1.00
19878;DHT22;10101;52.204;9.910;2024-02-21T10:52:10;10.60;1.00
19878;DHT22;10101;52.204;9.910;2024-02-21T10:54:44;10.60;1.00
19878;DHT22;10101;52.204;9.910;2024-02-21T10:57:13;10.70;1.00
19878;DHT22;10101;52.204;9.910;2024-02-21T10:59:40;10.60;1.00
19878;DHT22;10101;52.204;9.910;2024-02-21T11:02:06;10.60;1.00
19878;DHT22;10101;52.204;9.910;2024-02-21T11:04:34;10.70;1.00
19878;DHT22;10101;52.204;9.910;2024-02-21T11:07:03;10.80;1.00
19878;DHT22;10101;52.204;9.910;2024-02-21T11:09:31;10.80;1.00
19878;DHT22;10101;52.204;9.910;2024-02-21T11:11:58;10.80;1.00
19878;DHT22;10101;52.204;9.910;2024-02-21T11:14:28;10.70;1.00
19878;DHT22;10101;52.204;9.910;2024-02-21T11:16:58;10.70;1.00
19878;DHT22;10101;52.204;9.910;2024-02-21T11:19:26;10.70;1.00
19878;DHT22;10101;52.204;9.910;2024-02-21T11:21:55;10.70;1.00
19878;DHT22;10101;52.204;9.910;2024-02-21T11:24:26;10.70;1.00
19878;DHT22;10101;52.204;9.910;2024-02-21T11:26:53;10.70;1.00
19878;DHT22;10101;52.204;9.910;2024-02-21T11:29:23;10.70;1.00
19878;DHT22;10101;52.204;9.910;2024-02-21T11:31:52;10.70;1.00
19878;DHT22;10101;52.204;9.910;2024-02-21T11:34:19;10.70;1.00
19878;DHT22;10101;52.204;9.910;2024-02-21T11:36:47;10.60;1.00
19878;DHT22;10101;52.204;9.910;2024-02-21T11:39:18;10.60;1.00
19878;DHT22;10101;52.204;9.910;2024-02-21T11:41:46;10.60;1.00
19878;DHT22;10101;52.204;9.910;2024-02-21T11:44:13;10.60;1.00
19878;DHT22;10101;52.204;9.910;2024-02-21T11:46:40;10.70;1.00
19878;DHT22;10101;52.204;9.910;2024-02-21T11:49:08;10.80;1.00
19878;DHT22;10101;52.204;9.910;2024-02-21T11:51:35;10.80;1.00
19878;DHT22;10101;52.204;9.910;2024-02-21T11:54:01;10.80;1.00
19878;DHT22;10101;52.204;9.910;2024-02-21T11:56:30;10.80;1.00
19878;DHT22;10101;52.204;9.910;2024-02-21T11:58:58;10.90;1.00
19878;DHT22;10101;52.204;9.910;2024-02-21T12:01:25;10.90;1.00
19878;DHT22;10101;52.204;9.910;2024-02-21T12:03:52;10.80;1.00
19878;DHT22;10101;52.204;9.910;2024-02-21T12:06:21;10.80;1.00
19878;DHT22;10101;52.204;9.910;2024-02-21T12:08:47;10.90;1.00
19878;DHT22;10101;52.204;9.910;2024-02-21T12:11:21;10.90;1.00
19878;DHT22;10101;52.204;9.910;2024-02-21T12:13:58;10.80;1.00
19878;DHT22;10101;52.204;9.910;2024-02-21T12:16:27;11.00;1.00
19878;DHT22;10101;52.204;9.910;2024-02-21T12:18:54;11.10;1.00
19878;DHT22;10101;52.204;9.910;2024-02-21T12:21:25;11.10;1.00
19878;DHT22;10101;52.204;9.910;2024-02-21T12:23:54;11.00;1.00
19878;DHT22;10101;52.204;9.910;2024-02-21T12:26:20;11.00;1.00
19878;DHT22;10101;52.204;9.910;2024-02-21T12:28:47;11.00;1.00
19878;DHT22;10101;52.204;9.910;2024-02-21T12:31:14;11.00;1.00
19878;DHT22;10101;52.204;9.910;2024-02-21T12:33:41;11.10;1.00
19878;DHT22;10101;52.204;9.910;2024-02-21T12:36:08;11.10;1.00
19878;DHT22;10101;52.204;9.910;2024-02-21T12:38:36;11.10;1.00
19878;DHT22;10101;52.204;9.910;2024-02-21T12:41:03;10.90;1.00
19878;DHT22;10101;52.204;9.910;2024-02-21T12:43:30;11.10;1.00
19878;DHT22;10101;52.204;9.910;2024-02-21T12:45:57;11.10;1.00
19878;DHT22;10101;52.204;9.910;2024-02-21T12:48:24;11.00;1.00
19878;DHT22;10101;52.204;9.910;2024-02-21T12:50:51;11.10;1.00
19878;DHT22;10101;52.204;9.910;2024-02-21T12:53:18;11.20;1.00
19878;DHT22;10101;52.204;9.910;2024-02-21T12:55:48;11.20;1.00
19878;DHT22;10101;52.204;9.910;2024-02-21T12:58:15;11.10;1.00
19878;DHT22;10101;52.204;9.910;2024-02-21T13:00:42;11.00;1.00
19878;DHT22;10101;52.204;9.910;2024-02-21T13:03:10;11.00;1.00
19878;DHT22;10101;52.204;9.910;2024-02-21T13:05:36;11.00;1.00
19878;DHT22;10101;52.204;9.910;2024-02-21T13:08:04;11.30;99.90
19878;DHT22;10101;52.204;9.910;2024-02-21T13:10:31;11.30;1.00
19878;DHT22;10101;52.204;9.910;2024-02-21T13:13:01;11.30;1.00
19878;DHT22;10101;52.204;9.910;2024-02-21T13:15:28;11.30;1.00
19878;DHT22;10101;52.204;9.910;2024-02-21T13:17:55;11.40;1.00
19878;DHT22;10101;52.204;9.910;2024-02-21T13:20:22;11.30;1.00
19878;DHT22;10101;52.204;9.910;2024-02-21T13:22:49;11.30;1.00
19878;DHT22;10101;52.204;9.910;2024-02-21T13:25:16;11.40;1.00
19878;DHT22;10101;52.204;9.910;2024-02-21T13:27:45;11.50;99.90
19878;DHT22;10101;52.204;9.910;2024-02-21T13:30:14;11.50;1.00
19878;DHT22;10101;52.204;9.910;2024-02-21T13:32:43;11.40;1.00
19878;DHT22;10101;52.204;9.910;2024-02-21T13:35:12;11.40;1.00
19878;DHT22;10101;52.204;9.910;2024-02-21T13:37:39;11.30;1.00
19878;DHT22;10101;52.204;9.910;2024-02-21T13:40:06;11.30;1.00
19878;DHT22;10101;52.204;9.910;2024-02-21T13:42:34;11.40;1.00
19878;DHT22;10101;52.204;9.910;2024-02-21T13:45:01;11.30;1.00
19878;DHT22;10101;52.204;9.910;2024-02-21T13:47:28;11.40;99.90
19878;DHT22;10101;52.204;9.910;2024-02-21T13:49:55;11.60;1.00
19878;DHT22;10101;52.204;9.910;2024-02-21T13:52:22;11.50;1.00
19878;DHT22;10101;52.204;9.910;2024-02-21T13:54:51;11.50;1.00
19878;DHT22;10101;52.204;9.910;2024-02-21T13:57:18;11.50;1.00
19878;DHT22;10101;52.204;9.910;2024-02-21T13:59:45;11.40;1.00
19878;DHT22;10101;52.204;9.910;2024-02-21T14:02:11;11.30;1.00
19878;DHT22;10101;52.204;9.910;2024-02-21T14:04:40;11.20;1.00
19878;DHT22;10101;52.204;9.910;2024-02-21T14:07:07;11.00;1.00
19878;DHT22;10101;52.204;9.910;2024-02-21T14:09:34;11.20;1.00
19878;DHT22;10101;52.204;9.910;2024-02-21T14:12:01;11.30;99.90
19878;DHT22;10101;52.204;9.910;2024-02-21T14:14:28;11.40;99.90
19878;DHT22;10101;52.204;9.910;2024-02-21T14:16:55;11.30;1.00
19878;DHT22;10101;52.204;9.910;2024-02-21T14:19:22;11.30;1.00
19878;DHT22;10101;52.204;9.910;2024-02-21T14:21:51;11.10;1.00
19878;DHT22;10101;52.204;9.910;2024-02-21T14:24:18;10.90;99.90
19878;DHT22;10101;52.204;9.910;2024-02-21T14:26:45;10.80;99.90
19878;DHT22;10101;52.204;9.910;2024-02-21T14:29:11;10.90;99.90
19878;DHT22;10101;52.204;9.910;2024-02-21T14:31:39;11.00;99.90
19878;DHT22;10101;52.204;9.910;2024-02-21T14:34:06;11.10;99.90
19878;DHT22;10101;52.204;9.910;2024-02-21T14:36:33;11.10;99.90
19878;DHT22;10101;52.204;9.910;2024-02-21T14:39:01;11.10;99.90
19878;DHT22;10101;52.204;9.910;2024-02-21T14:41:28;11.00;1.00
19878;DHT22;10101;52.204;9.910;2024-02-21T14:43:55;11.00;99.90
19878;DHT22;10101;52.204;9.910;2024-02-21T14:46:25;11.00;99.90
19878;DHT22;10101;52.204;9.910;2024-02-21T14:48:53;11.00;99.90
19878;DHT22;10101;52.204;9.910;2024-02-21T14:51:20;11.00;99.90
19878;DHT22;10101;52.204;9.910;2024-02-21T14:53:47;11.00;1.00
19878;DHT22;10101;52.204;9.910;2024-02-21T14:56:15;11.10;99.90
19878;DHT22;10101;52.204;9.910;2024-02-21T14:58:43;11.00;99.90
19878;DHT22;10101;52.204;9.910;2024-02-21T15:01:10;11.00;99.90
19878;DHT22;10101;52.204;9.910;2024-02-21T15:03:38;10.90;99.90
19878;DHT22;10101;52.204;9.910;2024-02-21T15:06:05;10.80;99.90
19878;DHT22;10101;52.204;9.910;2024-02-21T15:08:32;10.80;99.90
19878;DHT22;10101;52.204;9.910;2024-02-21T15:10:59;10.60;99.90
19878;DHT22;10101;52.204;9.910;2024-02-21T15:13:27;10.50;99.90
19878;DHT22;10101;52.204;9.910;2024-02-21T15:15:53;10.50;99.90
19878;DHT22;10101;52.204;9.910;2024-02-21T15:18:20;10.50;99.90
19878;DHT22;10101;52.204;9.910;2024-02-21T15:20:47;10.40;99.90
19878;DHT22;10101;52.204;9.910;2024-02-21T15:23:14;10.30;99.90
19878;DHT22;10101;52.204;9.910;2024-02-21T15:25:41;10.30;99.90
19878;DHT22;10101;52.204;9.910;2024-02-21T15:28:08;10.30;99.90
19878;DHT22;10101;52.204;9.910;2024-02-21T15:30:37;10.30;99.90
19878;DHT22;10101;52.204;9.910;2024-02-21T15:33:04;10.20;99.90
19878;DHT22;10101;52.204;9.910;2024-02-21T15:35:30;10.20;99.90
19878;DHT22;10101;52.204;9.910;2024-02-21T15:37:57;10.20;99.90
19878;DHT22;10101;52.204;9.910;2024-02-21T15:40:24;10.20;99.90
19878;DHT22;10101;52.204;9.910;2024-02-21T15:42:51;10.10;99.90
19878;DHT22;10101;52.204;9.910;2024-02-21T15:45:19;10.00;99.90
19878;DHT22;10101;52.204;9.910;2024-02-21T15:47:47;10.00;99.90
19878;DHT22;10101;52.204;9.910;2024-02-21T15:50:14;10.00;99.90